Time;durP1;ratioP1;P1;durP2;ratioP2;P2;SDS_P1;SDS_P2;PMS_P1;PMS_P2;Temp;Humidity;BMP_temperature;BMP_pressure;BME280_temperature;BME280_humidity;BME280_pressure;Samples;Min_cycle;Max_cycle;Signal;HPM_P1;HPM_P2
2024/01/04 00:00:25;;;;;;;6.25;0.73;;;6.40;99.90;;;;;;5106324;28;20036;-66
2024/01/04 00:02:53;;;;;;;6.45;0.88;;;6.30;99.90;;;;;;5109743;27;20031;-66
2024/01/04 00:05:19;;;;;;;6.25;0.98;;;6.30;99.90;;;;;;5091025;28;20043;-64
2024/01/04 00:07:45;;;;;;;4.03;0.80;;;6.20;99.90;;;;;;5107684;28;20101;-64
2024/01/04 00:10:13;;;;;;;6.72;0.70;;;6.20;99.90;;;;;;5107394;28;20055;-64
2024/01/04 00:12:39;;;;;;;8.05;0.70;;;6.20;99.90;;;;;;5108284;27;20043;-64
2024/01/04 00:15:06;;;;;;;5.78;1.05;;;6.90;99.90;;;;;;5109353;27;20047;-66
2024/01/04 00:17:32;;;;;;;7.65;1.10;;;6.20;99.90;;;;;;5106948;28;20078;-66
2024/01/04 00:19:58;;;;;;;4.13;0.65;;;6.80;99.90;;;;;;5106931;28;20460;-66
2024/01/04 00:22:24;;;;;;;9.70;1.35;;;6.10;99.90;;;;;;5108842;27;20116;-66
2024/01/04 00:24:51;;;;;;;2.53;0.60;;;6.10;99.90;;;;;;5108230;27;20043;-66
2024/01/04 00:27:17;;;;;;;6.10;0.70;;;6.10;99.90;;;;;;5108013;28;20067;-68
2024/01/04 00:29:43;;;;;;;3.00;0.60;;;6.40;99.90;;;;;;5106095;28;20039;-66
2024/01/04 00:32:09;;;;;;;5.82;0.75;;;6.10;99.90;;;;;;5105481;28;20051;-66
2024/01/04 00:34:35;;;;;;;3.03;0.50;;;6.30;99.90;;;;;;5135358;27;20507;-66
2024/01/04 00:37:01;;;;;;;2.90;0.55;;;6.10;99.90;;;;;;5128711;27;20050;-66
2024/01/04 00:39:26;;;;;;;5.22;0.77;;;6.10;99.90;;;;;;5108227;27;20046;-66
2024/01/04 00:41:53;;;;;;;6.07;1.10;;;6.00;99.90;;;;;;5091328;28;20134;-70
2024/01/04 00:44:19;;;;;;;6.03;0.80;;;6.00;99.90;;;;;;5106061;27;20061;-68
2024/01/04 00:46:45;;;;;;;4.63;0.73;;;6.00;99.90;;;;;;5108023;28;20055;-69
2024/01/04 00:49:11;;;;;;;2.45;0.52;;;6.00;99.90;;;;;;5106544;28;20054;-68
2024/01/04 00:51:37;;;;;;;4.43;0.50;;;6.00;99.90;;;;;;5107213;28;20114;-68
2024/01/04 00:54:03;;;;;;;3.28;0.80;;;6.00;99.90;;;;;;5090023;28;20055;-69
2024/01/04 00:56:33;;;;;;;3.92;0.70;;;6.00;99.90;;;;;;5107656;28;20043;-69
2024/01/04 00:59:00;;;;;;;5.43;0.70;;;6.40;99.90;;;;;;5107632;28;20373;-69
2024/01/04 01:01:35;;;;;;;5.07;0.88;;;5.90;99.90;;;;;;5105730;27;20492;-70
2024/01/04 01:04:01;;;;;;;4.70;0.68;;;5.90;99.90;;;;;;5106351;28;20048;-66
2024/01/04 01:06:28;;;;;;;7.78;0.90;;;5.90;99.90;;;;;;5109252;28;20039;-67
2024/01/04 01:08:54;;;;;;;5.95;0.60;;;5.90;99.90;;;;;;5107104;28;20469;-65
2024/01/04 01:11:19;;;;;;;2.55;0.75;;;5.90;99.90;;;;;;5107348;28;20043;-65
2024/01/04 01:13:45;;;;;;;6.07;0.80;;;5.90;99.90;;;;;;5108162;28;20079;-65
2024/01/04 01:16:11;;;;;;;7.03;1.23;;;5.80;99.90;;;;;;5088424;28;20154;-65
2024/01/04 01:18:40;;;;;;;2.92;0.80;;;5.80;99.90;;;;;;5134746;27;20039;-66
2024/01/04 01:21:05;;;;;;;3.47;0.50;;;5.80;99.90;;;;;;5107365;28;20054;-65
2024/01/04 01:23:31;;;;;;;6.93;0.98;;;5.80;99.90;;;;;;5087881;28;20044;-65
2024/01/04 01:25:57;;;;;;;4.78;0.70;;;5.80;99.90;;;;;;5108448;27;20044;-65
2024/01/04 01:28:23;;;;;;;2.00;0.50;;;5.80;99.90;;;;;;5109099;28;20089;-66
2024/01/04 01:30:53;;;;;;;7.60;1.10;;;5.70;99.90;;;;;;5087242;28;20039;-65
2024/01/04 01:33:18;;;;;;;6.85;0.95;;;5.70;99.90;;;;;;5105509;27;20051;-65
2024/01/04 01:35:44;;;;;;;3.25;0.55;;;5.70;99.90;;;;;;5107027;28;20047;-65
2024/01/04 01:38:10;;;;;;;5.10;0.60;;;5.70;99.90;;;;;;5129513;27;20040;-66
2024/01/04 01:40:36;;;;;;;5.50;0.57;;;5.70;99.90;;;;;;5106170;28;20051;-65
2024/01/04 01:43:04;;;;;;;9.95;0.85;;;5.70;99.90;;;;;;5105616;28;20054;-65
2024/01/04 01:45:30;;;;;;;1.58;0.40;;;5.70;99.90;;;;;;5106548;28;20075;-66
2024/01/04 01:47:56;;;;;;;3.72;0.70;;;5.70;99.90;;;;;;5106561;28;20070;-65
2024/01/04 01:50:24;;;;;;;4.05;0.60;;;5.70;99.90;;;;;;5105753;27;20055;-67
2024/01/04 01:52:53;;;;;;;8.05;1.00;;;5.70;99.90;;;;;;5103679;28;20702;-66
2024/01/04 01:55:20;;;;;;;4.65;0.73;;;5.70;99.90;;;;;;5106186;28;20042;-66
2024/01/04 01:57:46;;;;;;;4.15;0.73;;;6.00;99.90;;;;;;5088625;28;20104;-66
2024/01/04 02:00:14;;;;;;;4.65;0.88;;;5.60;99.90;;;;;;5133823;27;20494;-66
2024/01/04 02:02:43;;;;;;;5.95;0.77;;;5.60;99.90;;;;;;5127668;27;20078;-65
2024/01/04 02:05:09;;;;;;;4.35;0.80;;;5.60;99.90;;;;;;5130886;27;20101;-65
2024/01/04 02:07:35;;;;;;;5.10;0.90;;;5.60;99.90;;;;;;5088247;28;20511;-66
2024/01/04 02:10:01;;;;;;;7.45;0.65;;;5.60;99.90;;;;;;5088757;28;20369;-66
2024/01/04 02:12:27;;;;;;;6.80;0.60;;;5.60;99.90;;;;;;5127098;27;20097;-65
2024/01/04 02:14:54;;;;;;;5.85;0.80;;;5.50;99.90;;;;;;5104886;28;20050;-66
2024/01/04 02:17:21;;;;;;;6.93;0.77;;;5.60;99.90;;;;;;5104607;28;20040;-66
2024/01/04 02:19:47;;;;;;;4.00;0.75;;;5.50;99.90;;;;;;5104925;28;20114;-69
2024/01/04 02:22:14;;;;;;;4.40;0.80;;;6.30;99.90;;;;;;5105147;28;20044;-68
2024/01/04 02:24:40;;;;;;;3.45;0.65;;;5.50;99.90;;;;;;5087930;28;20039;-68
2024/01/04 02:27:06;;;;;;;4.60;0.90;;;5.40;99.90;;;;;;5087532;28;20507;-68
2024/01/04 02:29:32;;;;;;;3.13;0.50;;;5.40;99.90;;;;;;5098009;28;20048;-69
2024/01/04 02:31:57;;;;;;;4.68;0.65;;;5.40;99.90;;;;;;5100630;28;20134;-68
2024/01/04 02:34:23;;;;;;;4.45;0.77;;;5.60;99.90;;;;;;5085601;28;20074;-68
2024/01/04 02:36:49;;;;;;;2.00;0.55;;;5.40;99.90;;;;;;5076920;28;20617;-69
2024/01/04 02:39:14;;;;;;;4.93;0.75;;;5.30;99.90;;;;;;5122023;27;20040;-69
2024/01/04 02:41:40;;;;;;;6.80;0.77;;;5.30;99.90;;;;;;5122780;27;20255;-69
2024/01/04 02:44:06;;;;;;;4.57;1.15;;;5.30;99.90;;;;;;5098248;28;20151;-70
2024/01/04 02:46:32;;;;;;;4.18;0.50;;;5.30;99.90;;;;;;5085951;28;20054;-69
2024/01/04 02:48:57;;;;;;;2.15;0.40;;;5.20;99.90;;;;;;5097092;28;20806;-69
2024/01/04 02:51:23;;;;;;;4.75;0.80;;;6.10;99.90;;;;;;5087813;28;20053;-67
2024/01/04 02:53:49;;;;;;;3.25;0.57;;;5.30;99.90;;;;;;5088817;28;20048;-69
2024/01/04 02:56:15;;;;;;;7.80;0.80;;;5.40;99.90;;;;;;5104122;28;20058;-69
2024/01/04 02:58:45;;;;;;;3.65;0.93;;;5.10;99.90;;;;;;5129665;27;20598;-69
2024/01/04 03:01:17;;;;;;;5.70;0.75;;;5.10;99.90;;;;;;5093772;28;20050;-69
2024/01/04 03:03:43;;;;;;;5.63;0.57;;;5.00;99.90;;;;;;5119335;27;20048;-68
2024/01/04 03:06:08;;;;;;;6.78;0.73;;;5.20;99.90;;;;;;5095745;28;20408;-69
2024/01/04 03:08:34;;;;;;;2.17;0.47;;;5.00;99.90;;;;;;5091998;28;20094;-69
2024/01/04 03:11:00;;;;;;;4.65;0.82;;;5.00;99.90;;;;;;5129992;27;20035;-69
2024/01/04 03:13:25;;;;;;;3.40;0.73;;;5.00;99.90;;;;;;5095205;28;20055;-68
2024/01/04 03:15:51;;;;;;;5.32;0.60;;;5.00;99.90;;;;;;5096604;28;20040;-70
2024/01/04 03:18:17;;;;;;;4.93;0.85;;;5.00;99.90;;;;;;5092659;28;20419;-68
2024/01/04 03:20:43;;;;;;;3.78;0.80;;;4.90;99.90;;;;;;5105317;28;20085;-69
2024/01/04 03:23:08;;;;;;;3.00;0.45;;;4.90;99.90;;;;;;5086249;28;20028;-68
2024/01/04 03:25:34;;;;;;;3.20;0.57;;;4.90;99.90;;;;;;5097764;28;20051;-67
2024/01/04 03:28:00;;;;;;;1.23;0.60;;;4.90;99.90;;;;;;5100502;28;20028;-68
2024/01/04 03:30:25;;;;;;;6.57;0.70;;;4.90;99.90;;;;;;5084971;28;20564;-68
2024/01/04 03:32:51;;;;;;;2.47;0.50;;;5.10;99.90;;;;;;5120279;27;20078;-69
2024/01/04 03:35:17;;;;;;;4.15;0.77;;;4.80;99.90;;;;;;5100146;28;20096;-68
2024/01/04 03:37:42;;;;;;;4.20;0.65;;;4.80;99.90;;;;;;5123459;27;20040;-69
2024/01/04 03:40:09;;;;;;;4.72;0.90;;;4.90;99.90;;;;;;5086103;28;20044;-69
2024/01/04 03:42:34;;;;;;;3.88;0.60;;;4.80;99.90;;;;;;5102376;28;20066;-68
2024/01/04 03:45:00;;;;;;;5.00;0.75;;;4.80;99.90;;;;;;5096954;28;20043;-68
2024/01/04 03:47:26;;;;;;;4.72;0.50;;;5.20;99.90;;;;;;5100741;28;20044;-66
2024/01/04 03:49:52;;;;;;;3.42;0.95;;;4.80;99.90;;;;;;5090178;28;20035;-66
2024/01/04 03:52:17;;;;;;;3.25;0.75;;;5.30;99.90;;;;;;5095653;28;20047;-66
2024/01/04 03:54:43;;;;;;;2.08;0.70;;;4.80;99.90;;;;;;5100902;28;20051;-66
2024/01/04 03:57:09;;;;;;;5.45;0.90;;;4.80;99.90;;;;;;5103498;28;20040;-66
2024/01/04 03:59:37;;;;;;;3.22;0.68;;;4.80;99.90;;;;;;5125097;27;20032;-68
2024/01/04 04:02:04;;;;;;;2.05;0.60;;;5.00;99.90;;;;;;5103086;28;20035;-68
2024/01/04 04:04:29;;;;;;;6.00;0.82;;;4.80;99.90;;;;;;5102868;28;20472;-68
2024/01/04 04:06:55;;;;;;;5.70;0.70;;;4.70;99.90;;;;;;5103650;28;20058;-68
2024/01/04 04:09:21;;;;;;;3.88;0.80;;;4.70;99.90;;;;;;5101107;28;20051;-67
2024/01/04 04:11:48;;;;;;;4.25;0.90;;;4.70;99.90;;;;;;5131520;27;20106;-67
2024/01/04 04:14:15;;;;;;;4.30;0.63;;;4.70;99.90;;;;;;5104260;28;20218;-67
2024/01/04 04:16:41;;;;;;;5.05;0.90;;;4.70;99.90;;;;;;5104555;28;20769;-68
2024/01/04 04:19:07;;;;;;;4.68;0.88;;;4.70;99.90;;;;;;5105679;28;20055;-68
2024/01/04 04:21:33;;;;;;;5.80;1.02;;;4.70;99.90;;;;;;5108740;28;20116;-68
2024/01/04 04:23:59;;;;;;;4.10;0.68;;;4.70;99.90;;;;;;5108185;28;20400;-68
2024/01/04 04:26:25;;;;;;;2.80;0.70;;;4.70;99.90;;;;;;5107328;28;20054;-67
2024/01/04 04:28:51;;;;;;;2.83;0.70;;;4.60;99.90;;;;;;5104820;28;20142;-67
2024/01/04 04:31:19;;;;;;;4.38;0.60;;;4.60;99.90;;;;;;5138248;27;20412;-67
2024/01/04 04:33:46;;;;;;;3.13;0.65;;;4.60;99.90;;;;;;5134266;27;20051;-67
2024/01/04 04:36:13;;;;;;;2.60;0.65;;;4.60;99.90;;;;;;5106698;28;20496;-67
2024/01/04 04:38:39;;;;;;;1.95;0.60;;;4.60;99.90;;;;;;5136550;27;20465;-68
2024/01/04 04:41:06;;;;;;;3.38;0.90;;;4.60;99.90;;;;;;5108147;28;20062;-67
2024/01/04 04:43:33;;;;;;;4.90;0.80;;;4.60;99.90;;;;;;5125410;27;20039;-68
2024/01/04 04:45:59;;;;;;;11.18;0.90;;;4.50;99.90;;;;;;5091083;28;20055;-69
2024/01/04 04:48:25;;;;;;;4.22;0.75;;;5.70;99.90;;;;;;5109780;28;20051;-68
2024/01/04 04:50:53;;;;;;;4.43;0.82;;;4.60;99.90;;;;;;5107904;28;20043;-68
2024/01/04 04:53:19;;;;;;;3.38;0.70;;;4.80;99.90;;;;;;5109561;27;20044;-68
2024/01/04 04:55:45;;;;;;;3.53;0.60;;;4.50;99.90;;;;;;5108697;28;20105;-68
2024/01/04 04:58:11;;;;;;;4.78;0.80;;;4.50;99.90;;;;;;5089908;28;20047;-68
2024/01/04 05:00:37;;;;;;;3.85;0.85;;;4.50;99.90;;;;;;5100221;28;20066;-68
2024/01/04 05:03:04;;;;;;;3.58;0.70;;;4.50;99.90;;;;;;5104113;28;20047;-67
2024/01/04 05:05:30;;;;;;;5.05;0.98;;;4.50;99.90;;;;;;5103326;28;20049;-67
2024/01/04 05:07:56;;;;;;;2.20;0.50;;;4.50;99.90;;;;;;5103825;28;20117;-67
2024/01/04 05:10:22;;;;;;;3.92;0.60;;;4.50;99.90;;;;;;5126433;27;20225;-67
2024/01/04 05:12:48;;;;;;;5.00;0.90;;;4.40;99.90;;;;;;5103103;28;20495;-67
2024/01/04 05:15:14;;;;;;;5.28;0.90;;;4.30;99.90;;;;;;5104545;28;20039;-67
2024/01/04 05:17:40;;;;;;;3.42;0.80;;;4.30;99.90;;;;;;5103102;28;20047;-68
2024/01/04 05:20:06;;;;;;;6.03;0.82;;;4.30;99.90;;;;;;5103477;28;20078;-67
2024/01/04 05:22:32;;;;;;;2.47;0.55;;;4.30;99.90;;;;;;5104218;28;20120;-67
2024/01/04 05:24:57;;;;;;;4.22;0.80;;;4.30;99.90;;;;;;5102325;27;20134;-66
2024/01/04 05:27:23;;;;;;;4.78;0.88;;;4.40;99.90;;;;;;5105019;28;20424;-67
2024/01/04 05:29:49;;;;;;;4.40;0.65;;;4.20;99.90;;;;;;5099328;28;20448;-67
2024/01/04 05:32:15;;;;;;;3.97;0.40;;;4.20;99.90;;;;;;5103245;28;20645;-67
2024/01/04 05:34:43;;;;;;;5.63;0.73;;;4.20;99.90;;;;;;5104743;28;20047;-67
2024/01/04 05:37:09;;;;;;;4.50;0.80;;;4.80;99.90;;;;;;5104177;28;20490;-67
2024/01/04 05:39:35;;;;;;;3.85;0.68;;;4.20;99.90;;;;;;5103808;28;20056;-67
2024/01/04 05:42:01;;;;;;;3.80;0.75;;;4.20;99.90;;;;;;5104910;28;20122;-67
2024/01/04 05:44:27;;;;;;;5.07;0.77;;;4.20;99.90;;;;;;5104671;28;20059;-67
2024/01/04 05:46:53;;;;;;;6.57;0.90;;;4.20;99.90;;;;;;5103394;28;20058;-67
2024/01/04 05:49:19;;;;;;;6.60;0.80;;;4.20;99.90;;;;;;5105944;28;20062;-67
2024/01/04 05:51:44;;;;;;;3.42;1.00;;;4.10;99.90;;;;;;5104596;28;20112;-67
2024/01/04 05:54:10;;;;;;;3.47;0.65;;;4.20;99.90;;;;;;5105024;27;20067;-67
2024/01/04 05:56:36;;;;;;;3.58;0.77;;;4.20;99.90;;;;;;5105400;28;20065;-67
2024/01/04 05:59:02;;;;;;;5.25;1.05;;;4.20;99.90;;;;;;5086227;28;20043;-67
2024/01/04 06:01:28;;;;;;;6.30;0.70;;;4.10;99.90;;;;;;5105037;28;20048;-67
2024/01/04 06:03:54;;;;;;;1.92;0.65;;;4.20;99.90;;;;;;5104541;28;20050;-67
2024/01/04 06:06:20;;;;;;;2.03;0.60;;;4.10;99.90;;;;;;5103501;28;20040;-67
2024/01/04 06:08:48;;;;;;;4.03;1.00;;;4.10;99.90;;;;;;5105234;28;20054;-67
2024/01/04 06:11:14;;;;;;;3.22;0.70;;;5.00;99.90;;;;;;5103407;28;20036;-67
2024/01/04 06:13:40;;;;;;;3.33;0.60;;;4.10;99.90;;;;;;5102907;28;20059;-67
2024/01/04 06:16:07;;;;;;;3.42;0.82;;;4.10;99.90;;;;;;5103193;28;20055;-67
2024/01/04 06:18:36;;;;;;;3.78;0.82;;;4.10;99.90;;;;;;5103187;28;20043;-67
2024/01/04 06:21:05;;;;;;;3.75;0.70;;;4.10;99.90;;;;;;5103916;28;20082;-67
2024/01/04 06:23:31;;;;;;;2.67;0.70;;;4.10;99.90;;;;;;5103690;28;20130;-67
2024/01/04 06:25:57;;;;;;;2.85;0.73;;;4.10;99.90;;;;;;5103106;28;20436;-67
2024/01/04 06:28:23;;;;;;;3.95;0.70;;;4.00;99.90;;;;;;5104706;28;20048;-67
2024/01/04 06:30:49;;;;;;;3.70;0.70;;;4.00;99.90;;;;;;5098952;28;20385;-67
2024/01/04 06:33:16;;;;;;;3.47;0.60;;;4.00;99.90;;;;;;5104000;28;20051;-67
2024/01/04 06:35:42;;;;;;;3.35;1.05;;;4.00;99.90;;;;;;5103856;28;20488;-67
2024/01/04 06:38:09;;;;;;;3.63;0.73;;;4.40;99.90;;;;;;5103928;28;20058;-67
2024/01/04 06:40:35;;;;;;;6.45;0.90;;;4.10;99.90;;;;;;5105682;28;20039;-67
2024/01/04 06:43:03;;;;;;;4.68;0.90;;;4.00;99.90;;;;;;5103052;28;20079;-66
2024/01/04 06:45:32;;;;;;;5.93;0.75;;;4.00;99.90;;;;;;5086577;28;20047;-66
2024/01/04 06:47:58;;;;;;;5.30;0.82;;;4.00;99.90;;;;;;5104861;28;20043;-67
2024/01/04 06:50:23;;;;;;;7.38;1.00;;;4.00;99.90;;;;;;5104402;28;20061;-67
2024/01/04 06:52:49;;;;;;;5.03;1.00;;;4.00;99.90;;;;;;5086712;28;20044;-66
2024/01/04 06:55:15;;;;;;;5.22;0.75;;;3.90;99.90;;;;;;5102442;28;20112;-67
2024/01/04 06:57:41;;;;;;;3.50;1.02;;;3.90;99.90;;;;;;5102896;28;20043;-67
2024/01/04 07:00:08;;;;;;;4.32;0.63;;;4.00;99.90;;;;;;5104574;28;20100;-67
2024/01/04 07:02:38;;;;;;;5.78;0.90;;;3.90;99.90;;;;;;5102946;28;20047;-67
2024/01/04 07:05:05;;;;;;;4.50;0.70;;;4.10;99.90;;;;;;5103830;27;20071;-67
2024/01/04 07:07:32;;;;;;;3.13;0.63;;;3.90;99.90;;;;;;5101265;28;20051;-67
2024/01/04 07:09:58;;;;;;;4.53;1.00;;;3.10;99.90;;;;;;5103879;28;20071;-67
2024/01/04 07:12:27;;;;;;;2.33;0.90;;;3.80;99.90;;;;;;5104395;27;20827;-67
2024/01/04 07:14:53;;;;;;;4.20;0.90;;;3.80;99.90;;;;;;5102437;28;20940;-67
2024/01/04 07:17:20;;;;;;;3.38;0.80;;;3.80;99.90;;;;;;5102197;28;20040;-67
2024/01/04 07:19:46;;;;;;;5.20;1.05;;;3.70;99.90;;;;;;5103385;28;20048;-67
2024/01/04 07:22:12;;;;;;;1.17;0.50;;;3.70;99.90;;;;;;5076401;28;20051;-67
2024/01/04 07:24:38;;;;;;;5.07;0.82;;;3.70;99.90;;;;;;5102276;28;20044;-67
2024/01/04 07:27:05;;;;;;;2.70;0.80;;;3.70;99.90;;;;;;5102442;28;20107;-67
2024/01/04 07:29:31;;;;;;;1.95;0.70;;;3.70;99.90;;;;;;5083344;28;20156;-66
2024/01/04 07:31:57;;;;;;;4.85;0.88;;;3.70;99.90;;;;;;5103101;28;20377;-66
2024/01/04 07:34:23;;;;;;;3.38;0.80;;;3.60;99.90;;;;;;5102611;28;20118;-67
2024/01/04 07:36:50;;;;;;;3.90;1.00;;;3.90;99.90;;;;;;5100635;28;20123;-67
2024/01/04 07:39:18;;;;;;;1.45;0.57;;;3.60;99.90;;;;;;5098393;28;20044;-66
2024/01/04 07:41:44;;;;;;;3.03;0.70;;;3.60;99.90;;;;;;5127854;27;20121;-67
2024/01/04 07:44:10;;;;;;;2.92;0.60;;;3.60;99.90;;;;;;5091034;28;20039;-67
2024/01/04 07:46:36;;;;;;;3.80;0.80;;;3.60;99.90;;;;;;5093955;28;20055;-66
2024/01/04 07:49:07;;;;;;;3.78;0.70;;;3.60;99.90;;;;;;5103329;28;20151;-65
2024/01/04 07:51:33;;;;;;;7.53;1.00;;;3.90;99.90;;;;;;5099901;28;20044;-65
2024/01/04 07:53:59;;;;;;;5.15;1.00;;;3.50;99.90;;;;;;5098267;28;20479;-65
2024/01/04 07:56:25;;;;;;;4.55;0.82;;;3.60;99.90;;;;;;5092433;28;20120;-64
2024/01/04 07:58:51;;;;;;;3.25;0.75;;;3.50;99.90;;;;;;5105322;28;20144;-62
2024/01/04 08:01:17;;;;;;;3.47;0.70;;;3.50;99.90;;;;;;5091805;28;20075;-64
2024/01/04 08:03:43;;;;;;;2.45;0.68;;;3.50;99.90;;;;;;5105486;28;20756;-64
2024/01/04 08:06:09;;;;;;;4.40;0.98;;;3.50;99.90;;;;;;5102141;28;20040;-65
2024/01/04 08:08:35;;;;;;;5.60;0.88;;;3.50;99.90;;;;;;5102141;27;20036;-65
2024/01/04 08:11:01;;;;;;;5.82;0.90;;;3.60;99.90;;;;;;5104338;27;20437;-65
2024/01/04 08:13:28;;;;;;;6.05;1.08;;;3.40;99.90;;;;;;5133149;27;20467;-65
2024/01/04 08:15:54;;;;;;;4.65;0.70;;;3.40;99.90;;;;;;5104263;28;20459;-65
2024/01/04 08:18:23;;;;;;;3.90;0.77;;;3.60;99.90;;;;;;5108269;28;20035;-64
2024/01/04 08:20:49;;;;;;;1.35;0.75;;;3.30;99.90;;;;;;5106431;27;20083;-65
2024/01/04 08:23:14;;;;;;;2.40;0.82;;;3.50;99.90;;;;;;5099710;27;20039;-64
2024/01/04 08:25:41;;;;;;;5.90;0.80;;;3.30;99.90;;;;;;5086543;27;20718;-66
2024/01/04 08:28:10;;;;;;;5.07;1.02;;;3.20;99.90;;;;;;5087958;27;20126;-62
2024/01/04 08:30:36;;;;;;;5.03;1.45;;;3.30;99.90;;;;;;5090164;27;20044;-66
2024/01/04 08:33:01;;;;;;;4.95;1.20;;;3.50;99.90;;;;;;5086561;28;20040;-65
2024/01/04 08:35:27;;;;;;;2.80;0.70;;;3.30;99.90;;;;;;5072054;28;20036;-64
2024/01/04 08:37:53;;;;;;;3.30;0.80;;;3.20;99.90;;;;;;5118532;27;20112;-64
2024/01/04 08:40:19;;;;;;;4.90;1.02;;;3.30;99.90;;;;;;5082815;28;20047;-65
2024/01/04 08:42:44;;;;;;;5.10;0.93;;;3.20;99.90;;;;;;5117929;27;20383;-64
2024/01/04 08:45:10;;;;;;;6.40;1.00;;;3.90;99.90;;;;;;5117099;27;20186;-64
2024/01/04 08:47:37;;;;;;;4.30;0.93;;;3.20;99.90;;;;;;5086083;28;20040;-64
2024/01/04 08:50:03;;;;;;;3.63;0.90;;;3.20;99.90;;;;;;5084128;28;20075;-64
2024/01/04 08:52:29;;;;;;;3.45;1.20;;;3.10;99.90;;;;;;5082820;28;20359;-65
2024/01/04 08:54:55;;;;;;;4.28;1.20;;;3.20;99.90;;;;;;5079654;28;20508;-64
2024/01/04 08:57:21;;;;;;;5.68;1.30;;;3.10;99.90;;;;;;5080177;28;20050;-64
2024/01/04 08:59:47;;;;;;;4.15;1.05;;;3.20;99.90;;;;;;5116043;27;20039;-65
2024/01/04 09:02:14;;;;;;;5.15;1.30;;;3.20;99.90;;;;;;5081557;28;20054;-64
2024/01/04 09:04:40;;;;;;;14.75;2.95;;;3.80;99.90;;;;;;5104487;27;20036;-66
2024/01/04 09:07:08;;;;;;;7.10;1.60;;;3.10;99.90;;;;;;5081396;28;20052;-65
2024/01/04 09:09:34;;;;;;;5.05;1.50;;;3.10;99.90;;;;;;5084592;28;20043;-64
2024/01/04 09:12:00;;;;;;;3.45;1.23;;;3.10;99.90;;;;;;5087704;28;20127;-65
2024/01/04 09:14:26;;;;;;;4.05;1.30;;;3.20;99.90;;;;;;5081715;28;20751;-64
2024/01/04 09:16:52;;;;;;;3.20;1.30;;;3.20;99.90;;;;;;5055686;28;20047;-64
2024/01/04 09:19:19;;;;;;;4.40;1.42;;;3.10;99.90;;;;;;5066434;28;20043;-64
2024/01/04 09:21:49;;;;;;;4.10;1.30;;;3.20;99.90;;;;;;5113856;27;20820;-64
2024/01/04 09:24:20;;;;;;;4.57;1.50;;;3.20;99.90;;;;;;5110792;27;20145;-65
2024/01/04 09:27:02;;;;;;;4.88;1.60;;;3.20;99.90;;;;;;5075064;28;20059;-64
2024/01/04 09:29:28;;;;;;;5.97;1.73;;;3.20;99.90;;;;;;5115032;27;20582;-64
2024/01/04 09:31:55;;;;;;;5.32;1.80;;;3.20;99.90;;;;;;5077078;27;20084;-64
2024/01/04 09:34:21;;;;;;;6.72;1.63;;;3.20;99.90;;;;;;5083464;28;20759;-64
2024/01/04 09:36:47;;;;;;;6.03;1.60;;;3.30;99.90;;;;;;5064660;28;20048;-64
2024/01/04 09:39:17;;;;;;;5.63;1.73;;;3.30;99.90;;;;;;5079994;28;20191;-64
2024/01/04 09:41:50;;;;;;;3.13;1.30;;;3.90;99.90;;;;;;5058816;28;20100;-64
2024/01/04 09:44:16;;;;;;;9.07;1.40;;;3.30;99.90;;;;;;5063018;28;20250;-64
2024/01/04 09:46:43;;;;;;;6.07;1.58;;;4.00;99.90;;;;;;5077363;28;21145;-64
2024/01/04 09:49:11;;;;;;;2.90;1.25;;;3.30;99.90;;;;;;5078794;28;20055;-64
2024/01/04 09:51:38;;;;;;;6.28;1.33;;;3.40;99.90;;;;;;5074090;28;20048;-64
2024/01/04 09:54:08;;;;;;;7.28;0.90;;;3.40;99.90;;;;;;5075917;28;20613;-64
2024/01/04 09:56:50;;;;;;;5.07;1.20;;;3.40;99.90;;;;;;5058561;28;20059;-64
2024/01/04 09:59:18;;;;;;;2.63;0.98;;;4.00;99.90;;;;;;5076347;27;20867;-64
2024/01/04 10:01:46;;;;;;;2.00;0.90;;;3.40;99.90;;;;;;5104889;27;20551;-65
2024/01/04 10:04:14;;;;;;;6.55;1.02;;;3.40;99.90;;;;;;5075915;28;20475;-65
2024/01/04 10:06:43;;;;;;;4.50;0.80;;;3.50;99.90;;;;;;5058567;28;20047;-65
2024/01/04 10:09:15;;;;;;;2.08;0.82;;;4.10;99.90;;;;;;5077235;27;20079;-65
2024/01/04 10:11:55;;;;;;;7.07;1.30;;;3.50;99.90;;;;;;5112312;27;20050;-65
2024/01/04 10:14:29;;;;;;;2.30;0.70;;;3.50;99.90;;;;;;5076817;28;20124;-66
2024/01/04 10:17:04;;;;;;;3.85;0.82;;;3.50;99.90;;;;;;5079693;28;20531;-64
2024/01/04 10:19:32;;;;;;;1.63;0.65;;;3.50;99.90;;;;;;5086451;28;20047;-65
2024/01/04 10:22:05;;;;;;;2.58;0.82;;;3.50;99.90;;;;;;5081264;28;20054;-64
2024/01/04 10:24:37;;;;;;;4.93;1.00;;;3.50;99.90;;;;;;5076555;28;20056;-65
2024/01/04 10:27:04;;;;;;;4.10;0.70;;;3.50;99.90;;;;;;5079418;28;20043;-65
2024/01/04 10:29:31;;;;;;;4.03;0.80;;;3.50;99.90;;;;;;5059270;28;20138;-65
2024/01/04 10:32:10;;;;;;;4.57;1.10;;;3.60;99.90;;;;;;5071527;28;20146;-64
2024/01/04 10:34:38;;;;;;;4.88;0.80;;;3.60;99.90;;;;;;5072647;28;20773;-65
2024/01/04 10:37:13;;;;;;;3.85;0.80;;;3.90;99.90;;;;;;5076145;28;20087;-64
2024/01/04 10:39:40;;;;;;;3.15;0.80;;;3.60;99.90;;;;;;5064157;28;20061;-65
2024/01/04 10:42:08;;;;;;;2.72;0.90;;;4.30;99.90;;;;;;5077447;28;20058;-65
2024/01/04 10:44:34;;;;;;;4.75;1.20;;;3.60;99.90;;;;;;5105554;27;20054;-65
2024/01/04 10:47:05;;;;;;;3.72;1.00;;;3.60;99.90;;;;;;5076078;28;20052;-65
2024/01/04 10:49:31;;;;;;;5.13;0.85;;;3.60;99.90;;;;;;5109749;27;20681;-64
2024/01/04 10:51:58;;;;;;;3.75;1.10;;;3.60;99.90;;;;;;5077761;28;20055;-65
2024/01/04 10:54:37;;;;;;;4.13;0.93;;;4.40;99.90;;;;;;5074995;27;20047;-65
2024/01/04 10:57:03;;;;;;;5.75;0.90;;;3.70;99.90;;;;;;5088437;27;20585;-65
2024/01/04 10:59:30;;;;;;;4.60;0.93;;;3.70;99.90;;;;;;5076196;28;20048;-65
2024/01/04 11:02:01;;;;;;;5.45;1.10;;;3.70;99.90;;;;;;5064211;28;20044;-65
2024/01/04 11:04:28;;;;;;;5.28;1.02;;;3.70;99.90;;;;;;5072519;28;20122;-65
2024/01/04 11:06:55;;;;;;;7.20;1.13;;;3.80;99.90;;;;;;5074725;28;20051;-64
2024/01/04 11:09:23;;;;;;;3.85;1.10;;;3.80;99.90;;;;;;5080170;28;20043;-64
2024/01/04 11:11:53;;;;;;;4.25;0.90;;;3.80;99.90;;;;;;5085726;28;20074;-64
2024/01/04 11:14:23;;;;;;;5.32;1.00;;;3.80;99.90;;;;;;5085980;28;20112;-64
2024/01/04 11:17:09;;;;;;;2.55;0.80;;;3.90;99.90;;;;;;5084947;28;20046;-64
2024/01/04 11:19:49;;;;;;;5.13;0.95;;;3.90;99.90;;;;;;5114118;27;20051;-64
2024/01/04 11:22:34;;;;;;;4.20;1.13;;;3.90;99.90;;;;;;5111328;27;20036;-65
2024/01/04 11:25:23;;;;;;;3.30;0.80;;;3.90;99.90;;;;;;5114517;27;20129;-65
2024/01/04 11:27:49;;;;;;;5.18;0.90;;;3.90;99.90;;;;;;5076368;28;20113;-65
2024/01/04 11:30:16;;;;;;;5.18;0.70;;;3.90;99.90;;;;;;5081445;28;20499;-65
2024/01/04 11:32:44;;;;;;;4.80;0.75;;;3.90;99.90;;;;;;5108582;27;20047;-64
2024/01/04 11:35:13;;;;;;;3.65;0.80;;;3.90;99.90;;;;;;5079230;28;20044;-64
2024/01/04 11:37:38;;;;;;;10.18;2.65;;;4.10;99.90;;;;;;5085205;28;20051;-66
2024/01/04 11:40:07;;;;;;;3.15;0.90;;;4.00;99.90;;;;;;5113815;27;20046;-64
2024/01/04 11:42:37;;;;;;;4.80;0.77;;;4.00;99.90;;;;;;5111398;27;20084;-64
2024/01/04 11:45:05;;;;;;;3.85;0.90;;;4.00;99.90;;;;;;5066746;28;20035;-66
2024/01/04 11:47:39;;;;;;;5.85;0.93;;;4.00;99.90;;;;;;5113829;27;20496;-65
2024/01/04 11:50:25;;;;;;;2.35;0.73;;;4.10;99.90;;;;;;5085907;28;20048;-64
2024/01/04 11:53:02;;;;;;;3.63;0.70;;;4.00;99.90;;;;;;5112575;27;20097;-64
2024/01/04 11:55:29;;;;;;;5.65;0.70;;;4.20;99.90;;;;;;5114551;27;20495;-65
2024/01/04 11:58:08;;;;;;;3.88;0.80;;;4.00;99.90;;;;;;5079747;28;20040;-65
2024/01/04 12:00:36;;;;;;;2.22;0.65;;;4.00;99.90;;;;;;5113183;27;20043;-65
2024/01/04 12:03:12;;;;;;;3.92;0.77;;;4.00;99.90;;;;;;5083123;28;20039;-64
2024/01/04 12:05:44;;;;;;;2.92;0.88;;;4.00;99.90;;;;;;5079563;28;20093;-65
2024/01/04 12:08:10;;;;;;;4.28;0.75;;;4.20;99.90;;;;;;5091188;28;20507;-66
2024/01/04 12:10:36;;;;;;;3.38;0.82;;;4.10;99.90;;;;;;5076420;28;20028;-65
2024/01/04 12:13:02;;;;;;;5.72;0.68;;;4.10;99.90;;;;;;5077772;28;20534;-64
2024/01/04 12:15:28;;;;;;;6.22;0.65;;;4.10;99.90;;;;;;5113328;27;20135;-64
2024/01/04 12:17:54;;;;;;;5.00;1.35;;;4.30;99.90;;;;;;5111987;27;20122;-65
2024/01/04 12:20:19;;;;;;;3.88;0.80;;;4.10;99.90;;;;;;5082681;28;20039;-64
2024/01/04 12:22:45;;;;;;;2.20;0.82;;;4.20;99.90;;;;;;5072931;28;20048;-65
2024/01/04 12:25:11;;;;;;;2.88;0.52;;;4.20;99.90;;;;;;5080838;28;20063;-64
2024/01/04 12:27:38;;;;;;;4.97;0.82;;;4.20;99.90;;;;;;5080392;28;20040;-65
2024/01/04 12:30:06;;;;;;;2.60;1.10;;;4.20;99.90;;;;;;5083771;28;20193;-65
2024/01/04 12:32:35;;;;;;;6.13;1.00;;;4.20;99.90;;;;;;5081910;28;20796;-64
2024/01/04 12:35:02;;;;;;;2.67;0.60;;;4.20;99.90;;;;;;5113982;27;20043;-64
2024/01/04 12:37:29;;;;;;;1.02;0.50;;;4.20;99.90;;;;;;5114809;27;20524;-68
2024/01/04 12:40:06;;;;;;;6.38;0.75;;;4.20;99.90;;;;;;5084991;28;20063;-66
2024/01/04 12:42:33;;;;;;;4.47;0.60;;;4.20;99.90;;;;;;5092110;28;20039;-66
2024/01/04 12:44:59;;;;;;;5.18;0.70;;;4.60;99.90;;;;;;5117627;27;20615;-66
2024/01/04 12:47:25;;;;;;;3.92;0.98;;;4.30;99.90;;;;;;5084278;28;20121;-65
2024/01/04 12:49:57;;;;;;;6.03;0.77;;;4.30;99.90;;;;;;5084116;28;20584;-66
2024/01/04 12:52:24;;;;;;;7.05;0.68;;;4.30;99.90;;;;;;5086657;28;20471;-64
2024/01/04 12:54:49;;;;;;;3.53;0.68;;;4.60;99.90;;;;;;5083071;27;20036;-65
2024/01/04 12:57:15;;;;;;;4.68;0.90;;;4.30;99.90;;;;;;5060010;28;21791;-64